sensor_id;sensor_type;location;lat;lon;timestamp;P1;durP1;ratioP1;P2;durP2;ratioP2
56670;SDS011;42545;50.054;8.306;2022-12-31T00:00:16;4.75;;;1.55;;
56670;SDS011;42545;50.054;8.306;2022-12-31T00:02:48;3.10;;;1.45;;
56670;SDS011;42545;50.054;8.306;2022-12-31T00:05:14;2.17;;;1.40;;
56670;SDS011;42545;50.054;8.306;2022-12-31T00:07:44;3.03;;;1.70;;
56670;SDS011;42545;50.054;8.306;2022-12-31T00:10:16;2.60;;;1.63;;
56670;SDS011;42545;50.054;8.306;2022-12-31T00:12:43;4.10;;;1.70;;
56670;SDS011;42545;50.054;8.306;2022-12-31T00:15:10;4.43;;;2.50;;
56670;SDS011;42545;50.054;8.306;2022-12-31T00:17:36;2.53;;;1.50;;
56670;SDS011;42545;50.054;8.306;2022-12-31T00:20:05;2.20;;;1.50;;
56670;SDS011;42545;50.054;8.306;2022-12-31T00:22:32;3.53;;;1.67;;
56670;SDS011;42545;50.054;8.306;2022-12-31T00:25:00;2.03;;;1.33;;
56670;SDS011;42545;50.054;8.306;2022-12-31T00:27:30;2.33;;;1.40;;
56670;SDS011;42545;50.054;8.306;2022-12-31T00:29:57;4.68;;;1.75;;
56670;SDS011;42545;50.054;8.306;2022-12-31T00:32:24;2.88;;;1.60;;
56670;SDS011;42545;50.054;8.306;2022-12-31T00:37:24;2.50;;;1.30;;
56670;SDS011;42545;50.054;8.306;2022-12-31T00:39:51;2.38;;;1.48;;
56670;SDS011;42545;50.054;8.306;2022-12-31T00:42:32;2.42;;;1.20;;
56670;SDS011;42545;50.054;8.306;2022-12-31T00:45:04;2.28;;;1.40;;
56670;SDS011;42545;50.054;8.306;2022-12-31T00:47:36;1.50;;;1.00;;
56670;SDS011;42545;50.054;8.306;2022-12-31T00:52:36;1.75;;;1.10;;
56670;SDS011;42545;50.054;8.306;2022-12-31T00:55:03;1.67;;;1.05;;
56670;SDS011;42545;50.054;8.306;2022-12-31T00:57:30;3.35;;;1.45;;
56670;SDS011;42545;50.054;8.306;2022-12-31T00:59:57;1.60;;;1.20;;
56670;SDS011;42545;50.054;8.306;2022-12-31T01:02:32;1.67;;;1.08;;
56670;SDS011;42545;50.054;8.306;2022-12-31T01:04:59;2.08;;;1.20;;
56670;SDS011;42545;50.054;8.306;2022-12-31T01:07:28;1.10;;;1.00;;
56670;SDS011;42545;50.054;8.306;2022-12-31T01:09:56;2.55;;;1.10;;
56670;SDS011;42545;50.054;8.306;2022-12-31T01:12:23;2.97;;;1.10;;
56670;SDS011;42545;50.054;8.306;2022-12-31T01:14:51;1.35;;;1.20;;
56670;SDS011;42545;50.054;8.306;2022-12-31T01:17:17;1.50;;;1.30;;
56670;SDS011;42545;50.054;8.306;2022-12-31T01:19:46;1.20;;;1.10;;
56670;SDS011;42545;50.054;8.306;2022-12-31T01:22:13;1.10;;;1.00;;
56670;SDS011;42545;50.054;8.306;2022-12-31T01:24:40;1.63;;;1.10;;
56670;SDS011;42545;50.054;8.306;2022-12-31T01:27:08;1.10;;;1.00;;
56670;SDS011;42545;50.054;8.306;2022-12-31T01:29:35;1.23;;;1.00;;
56670;SDS011;42545;50.054;8.306;2022-12-31T01:32:02;0.98;;;0.80;;
56670;SDS011;42545;50.054;8.306;2022-12-31T01:34:36;1.17;;;0.90;;
56670;SDS011;42545;50.054;8.306;2022-12-31T01:37:03;1.67;;;0.90;;
56670;SDS011;42545;50.054;8.306;2022-12-31T01:39:29;1.83;;;1.10;;
56670;SDS011;42545;50.054;8.306;2022-12-31T01:41:57;1.90;;;1.08;;
56670;SDS011;42545;50.054;8.306;2022-12-31T01:47:17;1.10;;;1.00;;
56670;SDS011;42545;50.054;8.306;2022-12-31T01:49:49;1.40;;;1.30;;
56670;SDS011;42545;50.054;8.306;2022-12-31T01:52:26;1.33;;;1.23;;
56670;SDS011;42545;50.054;8.306;2022-12-31T01:54:56;1.92;;;1.35;;
56670;SDS011;42545;50.054;8.306;2022-12-31T01:57:28;1.92;;;1.33;;
56670;SDS011;42545;50.054;8.306;2022-12-31T01:59:58;1.40;;;1.27;;
56670;SDS011;42545;50.054;8.306;2022-12-31T02:02:26;3.83;;;1.50;;
56670;SDS011;42545;50.054;8.306;2022-12-31T02:04:54;2.17;;;1.40;;
56670;SDS011;42545;50.054;8.306;2022-12-31T02:07:24;1.63;;;1.20;;
56670;SDS011;42545;50.054;8.306;2022-12-31T02:09:51;1.63;;;1.23;;
56670;SDS011;42545;50.054;8.306;2022-12-31T02:12:19;4.03;;;1.27;;
56670;SDS011;42545;50.054;8.306;2022-12-31T02:14:48;1.48;;;1.10;;
56670;SDS011;42545;50.054;8.306;2022-12-31T02:20:10;2.78;;;1.40;;
56670;SDS011;42545;50.054;8.306;2022-12-31T02:23:09;2.67;;;1.35;;
56670;SDS011;42545;50.054;8.306;2022-12-31T02:28:29;1.65;;;1.30;;
56670;SDS011;42545;50.054;8.306;2022-12-31T02:31:11;3.17;;;1.63;;
56670;SDS011;42545;50.054;8.306;2022-12-31T02:33:42;1.48;;;1.20;;
56670;SDS011;42545;50.054;8.306;2022-12-31T02:36:19;1.85;;;1.30;;
56670;SDS011;42545;50.054;8.306;2022-12-31T02:38:49;1.90;;;1.50;;
56670;SDS011;42545;50.054;8.306;2022-12-31T02:41:17;1.25;;;1.15;;
56670;SDS011;42545;50.054;8.306;2022-12-31T02:43:59;1.27;;;1.10;;
56670;SDS011;42545;50.054;8.306;2022-12-31T02:46:28;3.35;;;1.40;;
56670;SDS011;42545;50.054;8.306;2022-12-31T02:49:04;2.05;;;1.50;;
56670;SDS011;42545;50.054;8.306;2022-12-31T02:51:39;5.55;;;1.50;;
56670;SDS011;42545;50.054;8.306;2022-12-31T02:54:15;2.15;;;1.50;;
56670;SDS011;42545;50.054;8.306;2022-12-31T02:56:50;3.17;;;1.40;;
56670;SDS011;42545;50.054;8.306;2022-12-31T02:59:27;3.65;;;1.73;;
56670;SDS011;42545;50.054;8.306;2022-12-31T03:02:17;2.85;;;1.50;;
56670;SDS011;42545;50.054;8.306;2022-12-31T03:04:50;4.22;;;1.77;;
56670;SDS011;42545;50.054;8.306;2022-12-31T03:07:19;2.25;;;1.30;;
56670;SDS011;42545;50.054;8.306;2022-12-31T03:09:48;1.75;;;1.27;;
56670;SDS011;42545;50.054;8.306;2022-12-31T03:12:15;3.47;;;1.40;;
56670;SDS011;42545;50.054;8.306;2022-12-31T03:15:02;1.60;;;1.40;;
56670;SDS011;42545;50.054;8.306;2022-12-31T03:17:32;2.88;;;1.80;;
56670;SDS011;42545;50.054;8.306;2022-12-31T03:19:59;4.82;;;1.92;;
56670;SDS011;42545;50.054;8.306;2022-12-31T03:22:43;3.17;;;1.73;;
56670;SDS011;42545;50.054;8.306;2022-12-31T03:25:12;2.03;;;1.50;;
56670;SDS011;42545;50.054;8.306;2022-12-31T03:28:00;2.55;;;1.65;;
56670;SDS011;42545;50.054;8.306;2022-12-31T03:30:30;2.45;;;1.70;;
56670;SDS011;42545;50.054;8.306;2022-12-31T03:33:01;5.65;;;2.35;;
56670;SDS011;42545;50.054;8.306;2022-12-31T03:35:31;2.33;;;1.60;;
56670;SDS011;42545;50.054;8.306;2022-12-31T03:38:01;3.20;;;1.90;;
56670;SDS011;42545;50.054;8.306;2022-12-31T03:40:29;3.17;;;1.90;;
56670;SDS011;42545;50.054;8.306;2022-12-31T03:42:58;2.92;;;1.73;;
56670;SDS011;42545;50.054;8.306;2022-12-31T03:45:25;3.33;;;1.90;;
56670;SDS011;42545;50.054;8.306;2022-12-31T03:47:52;3.38;;;1.77;;
56670;SDS011;42545;50.054;8.306;2022-12-31T03:50:21;4.47;;;2.05;;
56670;SDS011;42545;50.054;8.306;2022-12-31T03:52:47;4.40;;;2.00;;
56670;SDS011;42545;50.054;8.306;2022-12-31T03:55:15;3.63;;;1.90;;
56670;SDS011;42545;50.054;8.306;2022-12-31T03:57:41;3.42;;;1.85;;
56670;SDS011;42545;50.054;8.306;2022-12-31T04:00:09;4.38;;;1.98;;
56670;SDS011;42545;50.054;8.306;2022-12-31T04:02:39;3.90;;;1.80;;
56670;SDS011;42545;50.054;8.306;2022-12-31T04:05:06;3.67;;;1.70;;
56670;SDS011;42545;50.054;8.306;2022-12-31T04:07:40;3.35;;;1.70;;
56670;SDS011;42545;50.054;8.306;2022-12-31T04:10:08;3.45;;;1.90;;
56670;SDS011;42545;50.054;8.306;2022-12-31T04:12:37;4.07;;;1.80;;
56670;SDS011;42545;50.054;8.306;2022-12-31T04:15:05;3.97;;;1.88;;
56670;SDS011;42545;50.054;8.306;2022-12-31T04:17:32;1.90;;;1.60;;
56670;SDS011;42545;50.054;8.306;2022-12-31T04:20:00;2.33;;;1.63;;
56670;SDS011;42545;50.054;8.306;2022-12-31T04:22:28;3.70;;;2.00;;
56670;SDS011;42545;50.054;8.306;2022-12-31T04:24:56;2.78;;;2.00;;
56670;SDS011;42545;50.054;8.306;2022-12-31T04:27:24;2.20;;;1.80;;
56670;SDS011;42545;50.054;8.306;2022-12-31T04:29:50;4.30;;;1.92;;
56670;SDS011;42545;50.054;8.306;2022-12-31T04:32:17;2.33;;;2.00;;
56670;SDS011;42545;50.054;8.306;2022-12-31T04:34:44;4.22;;;1.95;;
56670;SDS011;42545;50.054;8.306;2022-12-31T04:37:12;2.85;;;1.77;;
56670;SDS011;42545;50.054;8.306;2022-12-31T04:39:40;4.65;;;1.63;;
56670;SDS011;42545;50.054;8.306;2022-12-31T04:42:08;3.40;;;1.83;;
56670;SDS011;42545;50.054;8.306;2022-12-31T04:44:34;3.55;;;1.67;;
56670;SDS011;42545;50.054;8.306;2022-12-31T04:47:05;3.95;;;2.10;;
56670;SDS011;42545;50.054;8.306;2022-12-31T04:49:32;3.88;;;1.80;;
56670;SDS011;42545;50.054;8.306;2022-12-31T04:52:01;2.95;;;1.80;;
56670;SDS011;42545;50.054;8.306;2022-12-31T04:54:29;2.17;;;1.60;;
56670;SDS011;42545;50.054;8.306;2022-12-31T04:56:55;5.03;;;2.05;;
56670;SDS011;42545;50.054;8.306;2022-12-31T04:59:30;2.53;;;1.50;;
56670;SDS011;42545;50.054;8.306;2022-12-31T05:01:56;2.75;;;1.40;;
56670;SDS011;42545;50.054;8.306;2022-12-31T05:04:23;2.20;;;1.60;;
56670;SDS011;42545;50.054;8.306;2022-12-31T05:06:50;2.30;;;1.60;;
56670;SDS011;42545;50.054;8.306;2022-12-31T05:09:17;2.17;;;1.58;;
56670;SDS011;42545;50.054;8.306;2022-12-31T05:11:43;2.40;;;1.60;;
56670;SDS011;42545;50.054;8.306;2022-12-31T05:14:10;2.30;;;1.50;;
56670;SDS011;42545;50.054;8.306;2022-12-31T05:16:38;4.20;;;1.75;;
56670;SDS011;42545;50.054;8.306;2022-12-31T05:19:07;3.15;;;1.60;;
56670;SDS011;42545;50.054;8.306;2022-12-31T05:21:33;2.92;;;1.42;;
56670;SDS011;42545;50.054;8.306;2022-12-31T05:24:00;2.17;;;1.35;;
56670;SDS011;42545;50.054;8.306;2022-12-31T05:26:27;3.33;;;1.73;;
56670;SDS011;42545;50.054;8.306;2022-12-31T05:28:54;3.13;;;1.35;;
56670;SDS011;42545;50.054;8.306;2022-12-31T05:33:54;4.50;;;1.65;;
56670;SDS011;42545;50.054;8.306;2022-12-31T05:36:24;1.60;;;1.17;;
56670;SDS011;42545;50.054;8.306;2022-12-31T05:38:53;1.50;;;1.38;;
56670;SDS011;42545;50.054;8.306;2022-12-31T05:41:19;3.42;;;1.60;;
56670;SDS011;42545;50.054;8.306;2022-12-31T05:43:48;4.15;;;1.52;;
56670;SDS011;42545;50.054;8.306;2022-12-31T05:46:16;2.05;;;1.30;;
56670;SDS011;42545;50.054;8.306;2022-12-31T05:48:42;2.63;;;1.27;;
56670;SDS011;42545;50.054;8.306;2022-12-31T05:51:12;1.98;;;1.60;;
56670;SDS011;42545;50.054;8.306;2022-12-31T05:53:39;2.53;;;1.40;;
56670;SDS011;42545;50.054;8.306;2022-12-31T05:56:06;3.47;;;1.40;;
56670;SDS011;42545;50.054;8.306;2022-12-31T05:58:34;1.35;;;1.10;;
56670;SDS011;42545;50.054;8.306;2022-12-31T06:01:01;2.90;;;1.40;;
56670;SDS011;42545;50.054;8.306;2022-12-31T06:03:28;1.20;;;1.10;;
56670;SDS011;42545;50.054;8.306;2022-12-31T06:05:57;2.47;;;1.40;;
56670;SDS011;42545;50.054;8.306;2022-12-31T06:08:27;2.03;;;1.25;;
56670;SDS011;42545;50.054;8.306;2022-12-31T06:10:54;3.13;;;1.38;;
56670;SDS011;42545;50.054;8.306;2022-12-31T06:13:20;2.50;;;1.40;;
56670;SDS011;42545;50.054;8.306;2022-12-31T06:15:47;1.77;;;1.20;;
56670;SDS011;42545;50.054;8.306;2022-12-31T06:18:13;1.73;;;1.20;;
56670;SDS011;42545;50.054;8.306;2022-12-31T06:20:40;1.42;;;1.17;;
56670;SDS011;42545;50.054;8.306;2022-12-31T06:23:07;2.63;;;1.95;;
56670;SDS011;42545;50.054;8.306;2022-12-31T06:25:38;2.28;;;1.27;;
56670;SDS011;42545;50.054;8.306;2022-12-31T06:28:06;3.35;;;1.30;;
56670;SDS011;42545;50.054;8.306;2022-12-31T06:30:32;1.70;;;1.30;;
56670;SDS011;42545;50.054;8.306;2022-12-31T06:32:59;2.33;;;1.20;;
56670;SDS011;42545;50.054;8.306;2022-12-31T06:35:26;2.13;;;1.23;;
56670;SDS011;42545;50.054;8.306;2022-12-31T06:37:53;1.80;;;1.10;;
56670;SDS011;42545;50.054;8.306;2022-12-31T06:40:20;2.30;;;1.30;;
56670;SDS011;42545;50.054;8.306;2022-12-31T06:42:48;2.30;;;1.25;;
56670;SDS011;42545;50.054;8.306;2022-12-31T06:45:15;2.72;;;1.30;;
56670;SDS011;42545;50.054;8.306;2022-12-31T06:47:42;2.45;;;1.48;;
56670;SDS011;42545;50.054;8.306;2022-12-31T06:50:08;1.98;;;1.40;;
56670;SDS011;42545;50.054;8.306;2022-12-31T06:52:35;4.78;;;1.50;;
56670;SDS011;42545;50.054;8.306;2022-12-31T06:55:02;1.60;;;1.20;;
56670;SDS011;42545;50.054;8.306;2022-12-31T06:57:30;1.90;;;1.10;;
56670;SDS011;42545;50.054;8.306;2022-12-31T06:59:59;1.30;;;1.20;;
56670;SDS011;42545;50.054;8.306;2022-12-31T07:02:29;4.15;;;1.40;;
56670;SDS011;42545;50.054;8.306;2022-12-31T07:05:20;1.70;;;1.20;;
56670;SDS011;42545;50.054;8.306;2022-12-31T07:07:57;1.20;;;1.10;;
56670;SDS011;42545;50.054;8.306;2022-12-31T07:10:35;1.55;;;1.27;;
56670;SDS011;42545;50.054;8.306;2022-12-31T07:13:17;2.25;;;1.20;;
56670;SDS011;42545;50.054;8.306;2022-12-31T07:15:54;3.35;;;1.30;;
56670;SDS011;42545;50.054;8.306;2022-12-31T07:18:32;1.45;;;1.00;;
56670;SDS011;42545;50.054;8.306;2022-12-31T07:21:08;1.83;;;1.05;;
56670;SDS011;42545;50.054;8.306;2022-12-31T07:23:37;1.23;;;1.13;;
56670;SDS011;42545;50.054;8.306;2022-12-31T07:26:05;1.23;;;1.13;;
56670;SDS011;42545;50.054;8.306;2022-12-31T07:28:45;3.83;;;1.15;;
56670;SDS011;42545;50.054;8.306;2022-12-31T07:31:27;3.80;;;1.20;;
56670;SDS011;42545;50.054;8.306;2022-12-31T07:34:06;1.60;;;1.08;;
56670;SDS011;42545;50.054;8.306;2022-12-31T07:36:44;2.42;;;1.13;;
56670;SDS011;42545;50.054;8.306;2022-12-31T07:39:24;1.77;;;1.27;;
56670;SDS011;42545;50.054;8.306;2022-12-31T07:41:58;1.63;;;1.33;;
56670;SDS011;42545;50.054;8.306;2022-12-31T07:44:37;4.65;;;1.27;;
56670;SDS011;42545;50.054;8.306;2022-12-31T07:47:16;2.40;;;0.90;;
56670;SDS011;42545;50.054;8.306;2022-12-31T07:49:46;2.70;;;1.08;;
56670;SDS011;42545;50.054;8.306;2022-12-31T07:52:14;3.85;;;1.40;;
56670;SDS011;42545;50.054;8.306;2022-12-31T07:54:41;1.48;;;1.10;;
56670;SDS011;42545;50.054;8.306;2022-12-31T07:57:08;3.45;;;1.23;;
56670;SDS011;42545;50.054;8.306;2022-12-31T07:59:38;2.25;;;1.15;;
56670;SDS011;42545;50.054;8.306;2022-12-31T08:02:15;1.48;;;1.20;;
56670;SDS011;42545;50.054;8.306;2022-12-31T08:04:54;2.08;;;1.42;;
56670;SDS011;42545;50.054;8.306;2022-12-31T08:07:31;2.60;;;1.50;;
56670;SDS011;42545;50.054;8.306;2022-12-31T08:10:07;2.38;;;1.65;;
56670;SDS011;42545;50.054;8.306;2022-12-31T08:12:38;1.48;;;1.30;;
56670;SDS011;42545;50.054;8.306;2022-12-31T08:15:12;2.03;;;1.40;;
56670;SDS011;42545;50.054;8.306;2022-12-31T08:17:45;1.77;;;1.20;;
56670;SDS011;42545;50.054;8.306;2022-12-31T08:20:15;3.10;;;1.60;;
56670;SDS011;42545;50.054;8.306;2022-12-31T08:22:52;3.58;;;1.52;;
56670;SDS011;42545;50.054;8.306;2022-12-31T08:25:34;2.30;;;1.20;;
56670;SDS011;42545;50.054;8.306;2022-12-31T08:28:19;2.80;;;1.65;;
56670;SDS011;42545;50.054;8.306;2022-12-31T08:30:59;2.38;;;1.70;;
56670;SDS011;42545;50.054;8.306;2022-12-31T08:33:37;6.70;;;1.50;;
56670;SDS011;42545;50.054;8.306;2022-12-31T08:36:10;1.55;;;1.40;;
56670;SDS011;42545;50.054;8.306;2022-12-31T08:38:48;6.15;;;1.80;;
56670;SDS011;42545;50.054;8.306;2022-12-31T08:41:22;2.53;;;1.48;;
56670;SDS011;42545;50.054;8.306;2022-12-31T08:43:57;3.63;;;1.58;;
56670;SDS011;42545;50.054;8.306;2022-12-31T08:46:37;2.80;;;1.50;;
56670;SDS011;42545;50.054;8.306;2022-12-31T08:49:11;3.67;;;1.55;;
56670;SDS011;42545;50.054;8.306;2022-12-31T08:51:39;1.90;;;1.70;;
56670;SDS011;42545;50.054;8.306;2022-12-31T08:54:08;3.95;;;1.80;;
56670;SDS011;42545;50.054;8.306;2022-12-31T08:56:39;1.88;;;1.50;;
56670;SDS011;42545;50.054;8.306;2022-12-31T08:59:14;1.83;;;1.42;;
56670;SDS011;42545;50.054;8.306;2022-12-31T09:01:57;2.30;;;1.67;;
56670;SDS011;42545;50.054;8.306;2022-12-31T09:04:51;2.70;;;1.50;;
56670;SDS011;42545;50.054;8.306;2022-12-31T09:07:29;2.97;;;1.80;;
56670;SDS011;42545;50.054;8.306;2022-12-31T09:10:02;7.38;;;2.13;;
56670;SDS011;42545;50.054;8.306;2022-12-31T09:12:34;5.55;;;3.00;;
56670;SDS011;42545;50.054;8.306;2022-12-31T09:15:08;7.18;;;2.13;;
56670;SDS011;42545;50.054;8.306;2022-12-31T09:17:43;4.80;;;1.77;;
56670;SDS011;42545;50.054;8.306;2022-12-31T09:20:18;3.88;;;1.58;;
56670;SDS011;42545;50.054;8.306;2022-12-31T09:22:48;4.28;;;2.42;;
56670;SDS011;42545;50.054;8.306;2022-12-31T09:25:17;2.90;;;1.92;;
56670;SDS011;42545;50.054;8.306;2022-12-31T09:27:48;2.47;;;1.80;;
56670;SDS011;42545;50.054;8.306;2022-12-31T09:30:23;4.88;;;2.47;;
56670;SDS011;42545;50.054;8.306;2022-12-31T09:32:55;2.80;;;1.60;;
56670;SDS011;42545;50.054;8.306;2022-12-31T09:35:34;3.85;;;1.80;;
56670;SDS011;42545;50.054;8.306;2022-12-31T09:38:04;3.72;;;1.77;;
56670;SDS011;42545;50.054;8.306;2022-12-31T09:40:44;3.53;;;1.67;;
56670;SDS011;42545;50.054;8.306;2022-12-31T09:43:25;4.22;;;1.75;;
56670;SDS011;42545;50.054;8.306;2022-12-31T09:49:28;2.95;;;1.52;;
56670;SDS011;42545;50.054;8.306;2022-12-31T09:52:17;4.32;;;1.80;;
56670;SDS011;42545;50.054;8.306;2022-12-31T09:54:51;4.18;;;1.73;;
56670;SDS011;42545;50.054;8.306;2022-12-31T09:57:32;3.80;;;1.95;;
56670;SDS011;42545;50.054;8.306;2022-12-31T10:00:08;4.05;;;1.92;;
56670;SDS011;42545;50.054;8.306;2022-12-31T10:02:44;4.32;;;2.05;;
56670;SDS011;42545;50.054;8.306;2022-12-31T10:05:30;5.53;;;1.60;;
56670;SDS011;42545;50.054;8.306;2022-12-31T10:08:11;4.28;;;2.10;;
56670;SDS011;42545;50.054;8.306;2022-12-31T10:10:54;2.03;;;1.60;;
56670;SDS011;42545;50.054;8.306;2022-12-31T10:13:28;4.50;;;2.00;;
56670;SDS011;42545;50.054;8.306;2022-12-31T10:19:21;4.05;;;1.70;;
56670;SDS011;42545;50.054;8.306;2022-12-31T10:22:01;3.80;;;1.80;;
56670;SDS011;42545;50.054;8.306;2022-12-31T10:24:43;5.88;;;1.80;;
56670;SDS011;42545;50.054;8.306;2022-12-31T10:27:18;4.63;;;1.70;;
56670;SDS011;42545;50.054;8.306;2022-12-31T10:29:57;2.67;;;1.50;;
56670;SDS011;42545;50.054;8.306;2022-12-31T10:32:30;2.40;;;1.50;;
56670;SDS011;42545;50.054;8.306;2022-12-31T10:35:13;3.97;;;1.80;;
56670;SDS011;42545;50.054;8.306;2022-12-31T10:37:55;2.40;;;1.73;;
56670;SDS011;42545;50.054;8.306;2022-12-31T10:40:38;2.55;;;1.50;;
56670;SDS011;42545;50.054;8.306;2022-12-31T10:43:29;2.60;;;1.60;;
56670;SDS011;42545;50.054;8.306;2022-12-31T10:46:20;5.05;;;1.80;;
56670;SDS011;42545;50.054;8.306;2022-12-31T10:49:12;7.25;;;2.17;;
56670;SDS011;42545;50.054;8.306;2022-12-31T10:52:11;3.35;;;1.90;;
56670;SDS011;42545;50.054;8.306;2022-12-31T10:54:57;4.50;;;1.70;;
56670;SDS011;42545;50.054;8.306;2022-12-31T10:57:45;3.92;;;1.65;;
56670;SDS011;42545;50.054;8.306;2022-12-31T11:00:21;4.32;;;2.03;;
56670;SDS011;42545;50.054;8.306;2022-12-31T11:02:55;6.40;;;2.10;;
56670;SDS011;42545;50.054;8.306;2022-12-31T11:06:13;2.60;;;1.70;;
56670;SDS011;42545;50.054;8.306;2022-12-31T11:09:21;3.70;;;1.80;;
56670;SDS011;42545;50.054;8.306;2022-12-31T11:12:30;3.38;;;1.65;;
56670;SDS011;42545;50.054;8.306;2022-12-31T11:15:29;3.92;;;1.60;;
56670;SDS011;42545;50.054;8.306;2022-12-31T11:20:49;2.63;;;1.60;;
56670;SDS011;42545;50.054;8.306;2022-12-31T11:23:28;3.50;;;1.60;;
56670;SDS011;42545;50.054;8.306;2022-12-31T11:26:05;7.03;;;1.80;;
56670;SDS011;42545;50.054;8.306;2022-12-31T11:28:46;4.13;;;1.75;;
56670;SDS011;42545;50.054;8.306;2022-12-31T11:31:33;5.07;;;1.85;;
56670;SDS011;42545;50.054;8.306;2022-12-31T11:34:11;2.97;;;1.60;;
56670;SDS011;42545;50.054;8.306;2022-12-31T11:36:59;2.30;;;1.73;;
56670;SDS011;42545;50.054;8.306;2022-12-31T11:39:39;5.68;;;2.25;;
56670;SDS011;42545;50.054;8.306;2022-12-31T11:42:18;3.22;;;2.10;;
56670;SDS011;42545;50.054;8.306;2022-12-31T11:44:52;3.78;;;1.80;;
56670;SDS011;42545;50.054;8.306;2022-12-31T11:47:31;2.83;;;1.70;;
56670;SDS011;42545;50.054;8.306;2022-12-31T11:50:14;3.20;;;1.73;;
56670;SDS011;42545;50.054;8.306;2022-12-31T11:52:53;4.00;;;1.70;;
56670;SDS011;42545;50.054;8.306;2022-12-31T11:55:31;4.90;;;1.92;;
56670;SDS011;42545;50.054;8.306;2022-12-31T11:58:08;5.80;;;1.70;;
56670;SDS011;42545;50.054;8.306;2022-12-31T12:00:37;3.72;;;1.80;;
56670;SDS011;42545;50.054;8.306;2022-12-31T12:03:09;6.63;;;2.30;;
56670;SDS011;42545;50.054;8.306;2022-12-31T12:05:37;5.40;;;2.50;;
56670;SDS011;42545;50.054;8.306;2022-12-31T12:08:05;3.92;;;1.88;;
56670;SDS011;42545;50.054;8.306;2022-12-31T12:10:34;3.45;;;1.92;;
56670;SDS011;42545;50.054;8.306;2022-12-31T12:13:09;6.07;;;2.10;;
56670;SDS011;42545;50.054;8.306;2022-12-31T12:15:38;2.58;;;1.65;;
56670;SDS011;42545;50.054;8.306;2022-12-31T12:18:17;3.80;;;1.67;;
56670;SDS011;42545;50.054;8.306;2022-12-31T12:20:50;5.43;;;1.83;;
56670;SDS011;42545;50.054;8.306;2022-12-31T12:23:21;4.45;;;1.73;;
56670;SDS011;42545;50.054;8.306;2022-12-31T12:25:49;2.42;;;1.40;;
56670;SDS011;42545;50.054;8.306;2022-12-31T12:28:20;2.60;;;1.50;;
56670;SDS011;42545;50.054;8.306;2022-12-31T12:30:52;4.45;;;1.92;;
56670;SDS011;42545;50.054;8.306;2022-12-31T12:33:22;4.45;;;1.70;;
56670;SDS011;42545;50.054;8.306;2022-12-31T12:35:49;3.03;;;1.67;;
56670;SDS011;42545;50.054;8.306;2022-12-31T12:38:17;2.42;;;1.70;;
56670;SDS011;42545;50.054;8.306;2022-12-31T12:40:54;5.20;;;1.70;;
56670;SDS011;42545;50.054;8.306;2022-12-31T12:43:23;2.47;;;1.63;;
56670;SDS011;42545;50.054;8.306;2022-12-31T12:45:53;2.47;;;1.73;;
56670;SDS011;42545;50.054;8.306;2022-12-31T12:48:28;3.38;;;1.65;;
56670;SDS011;42545;50.054;8.306;2022-12-31T12:51:00;3.83;;;1.70;;
56670;SDS011;42545;50.054;8.306;2022-12-31T12:53:37;3.22;;;1.70;;
56670;SDS011;42545;50.054;8.306;2022-12-31T12:56:18;3.85;;;1.75;;
56670;SDS011;42545;50.054;8.306;2022-12-31T12:58:58;5.22;;;2.05;;
56670;SDS011;42545;50.054;8.306;2022-12-31T13:01:36;2.67;;;1.70;;
56670;SDS011;42545;50.054;8.306;2022-12-31T13:04:17;2.67;;;1.55;;
56670;SDS011;42545;50.054;8.306;2022-12-31T13:06:57;1.90;;;1.42;;
56670;SDS011;42545;50.054;8.306;2022-12-31T13:09:41;2.72;;;1.60;;
56670;SDS011;42545;50.054;8.306;2022-12-31T13:12:23;3.20;;;1.77;;
56670;SDS011;42545;50.054;8.306;2022-12-31T13:14:56;3.22;;;1.60;;
56670;SDS011;42545;50.054;8.306;2022-12-31T13:17:31;4.85;;;1.60;;
56670;SDS011;42545;50.054;8.306;2022-12-31T13:20:12;3.30;;;1.48;;
56670;SDS011;42545;50.054;8.306;2022-12-31T13:22:47;2.50;;;1.30;;
56670;SDS011;42545;50.054;8.306;2022-12-31T13:25:23;5.25;;;1.80;;
56670;SDS011;42545;50.054;8.306;2022-12-31T13:27:56;2.10;;;1.30;;
56670;SDS011;42545;50.054;8.306;2022-12-31T13:30:29;2.55;;;1.38;;
56670;SDS011;42545;50.054;8.306;2022-12-31T13:33:02;3.70;;;1.60;;
56670;SDS011;42545;50.054;8.306;2022-12-31T13:35:36;3.80;;;1.85;;
56670;SDS011;42545;50.054;8.306;2022-12-31T13:38:11;2.35;;;1.50;;
56670;SDS011;42545;50.054;8.306;2022-12-31T13:40:44;6.05;;;1.90;;
56670;SDS011;42545;50.054;8.306;2022-12-31T13:43:15;2.35;;;1.63;;
56670;SDS011;42545;50.054;8.306;2022-12-31T13:45:47;2.67;;;1.55;;
56670;SDS011;42545;50.054;8.306;2022-12-31T13:48:29;2.45;;;1.35;;
56670;SDS011;42545;50.054;8.306;2022-12-31T13:51:05;1.80;;;1.33;;
56670;SDS011;42545;50.054;8.306;2022-12-31T13:53:37;2.97;;;1.80;;
56670;SDS011;42545;50.054;8.306;2022-12-31T13:56:13;3.00;;;1.73;;
56670;SDS011;42545;50.054;8.306;2022-12-31T13:58:49;2.15;;;1.30;;
56670;SDS011;42545;50.054;8.306;2022-12-31T14:01:24;2.67;;;1.50;;
56670;SDS011;42545;50.054;8.306;2022-12-31T14:03:58;3.03;;;1.70;;
56670;SDS011;42545;50.054;8.306;2022-12-31T14:06:33;2.60;;;1.42;;
56670;SDS011;42545;50.054;8.306;2022-12-31T14:09:06;6.13;;;1.60;;
56670;SDS011;42545;50.054;8.306;2022-12-31T14:11:41;2.75;;;1.50;;
56670;SDS011;42545;50.054;8.306;2022-12-31T14:14:21;2.38;;;1.50;;
56670;SDS011;42545;50.054;8.306;2022-12-31T14:16:54;3.15;;;1.58;;
56670;SDS011;42545;50.054;8.306;2022-12-31T14:19:30;2.22;;;1.45;;
56670;SDS011;42545;50.054;8.306;2022-12-31T14:22:11;3.35;;;1.33;;
56670;SDS011;42545;50.054;8.306;2022-12-31T14:24:44;2.20;;;1.20;;
56670;SDS011;42545;50.054;8.306;2022-12-31T14:27:14;2.35;;;1.45;;
56670;SDS011;42545;50.054;8.306;2022-12-31T14:29:46;1.58;;;1.30;;
56670;SDS011;42545;50.054;8.306;2022-12-31T14:32:24;2.75;;;1.27;;
56670;SDS011;42545;50.054;8.306;2022-12-31T14:35:14;1.98;;;1.30;;
56670;SDS011;42545;50.054;8.306;2022-12-31T14:37:54;1.92;;;1.48;;
56670;SDS011;42545;50.054;8.306;2022-12-31T14:40:25;1.60;;;1.10;;
56670;SDS011;42545;50.054;8.306;2022-12-31T14:43:04;1.48;;;1.23;;
56670;SDS011;42545;50.054;8.306;2022-12-31T14:45:45;1.48;;;1.15;;
56670;SDS011;42545;50.054;8.306;2022-12-31T14:48:23;2.22;;;1.33;;
56670;SDS011;42545;50.054;8.306;2022-12-31T14:50:58;1.23;;;1.10;;
56670;SDS011;42545;50.054;8.306;2022-12-31T14:53:29;2.22;;;1.17;;
56670;SDS011;42545;50.054;8.306;2022-12-31T14:55:59;1.80;;;1.17;;
56670;SDS011;42545;50.054;8.306;2022-12-31T14:58:31;3.38;;;1.20;;
56670;SDS011;42545;50.054;8.306;2022-12-31T15:01:00;1.58;;;1.10;;
56670;SDS011;42545;50.054;8.306;2022-12-31T15:03:33;2.58;;;1.52;;
56670;SDS011;42545;50.054;8.306;2022-12-31T15:06:04;2.25;;;1.48;;
56670;SDS011;42545;50.054;8.306;2022-12-31T15:08:45;2.35;;;1.73;;
56670;SDS011;42545;50.054;8.306;2022-12-31T15:11:24;3.60;;;1.85;;
56670;SDS011;42545;50.054;8.306;2022-12-31T15:14:14;2.58;;;1.58;;
56670;SDS011;42545;50.054;8.306;2022-12-31T15:16:52;3.80;;;1.40;;
56670;SDS011;42545;50.054;8.306;2022-12-31T15:19:28;1.73;;;1.33;;
56670;SDS011;42545;50.054;8.306;2022-12-31T15:22:19;2.30;;;1.33;;
56670;SDS011;42545;50.054;8.306;2022-12-31T15:24:58;2.70;;;1.30;;
56670;SDS011;42545;50.054;8.306;2022-12-31T15:27:29;1.23;;;1.10;;
56670;SDS011;42545;50.054;8.306;2022-12-31T15:30:00;1.27;;;1.13;;
56670;SDS011;42545;50.054;8.306;2022-12-31T15:32:45;1.63;;;1.10;;
56670;SDS011;42545;50.054;8.306;2022-12-31T15:35:24;1.27;;;1.10;;
56670;SDS011;42545;50.054;8.306;2022-12-31T15:37:59;1.65;;;0.90;;
56670;SDS011;42545;50.054;8.306;2022-12-31T15:40:30;0.93;;;0.82;;
56670;SDS011;42545;50.054;8.306;2022-12-31T15:43:15;1.23;;;0.95;;
56670;SDS011;42545;50.054;8.306;2022-12-31T15:45:48;0.90;;;0.90;;
56670;SDS011;42545;50.054;8.306;2022-12-31T15:48:19;1.13;;;0.90;;
56670;SDS011;42545;50.054;8.306;2022-12-31T15:50:56;1.58;;;1.10;;